createdAt,value
2019-03-09T00:00:37.155Z,4.67
2019-03-09T00:03:06.213Z,5.37
2019-03-09T00:05:34.350Z,5.27
2019-03-09T00:08:03.479Z,4.60
2019-03-09T00:10:31.831Z,4.93
2019-03-09T00:12:59.913Z,5.13
2019-03-09T00:15:27.967Z,5.43
2019-03-09T00:17:56.012Z,5.80
2019-03-09T00:20:24.063Z,5.40
2019-03-09T00:22:58.044Z,6.13
2019-03-09T00:25:30.754Z,6.60
2019-03-09T00:28:10.154Z,6.07
2019-03-09T00:30:52.562Z,5.70
2019-03-09T00:33:20.995Z,6.03
2019-03-09T00:35:49.241Z,6.07
2019-03-09T00:38:17.343Z,5.50
2019-03-09T00:40:46.344Z,5.83
2019-03-09T00:43:14.334Z,7.25
2019-03-09T00:45:45.130Z,6.87
2019-03-09T00:48:13.483Z,6.37
2019-03-09T00:50:41.536Z,5.50
2019-03-09T00:53:09.855Z,6.20
2019-03-09T00:55:37.902Z,6.33
2019-03-09T00:58:05.874Z,5.90
2019-03-09T01:00:33.880Z,6.22
2019-03-09T01:03:01.933Z,5.90
2019-03-09T01:05:29.960Z,6.90
2019-03-09T01:07:58.016Z,5.90
2019-03-09T01:10:26.031Z,5.80
2019-03-09T01:12:54.084Z,6.53
2019-03-09T01:15:22.107Z,6.07
2019-03-09T01:17:50.173Z,6.10
2019-03-09T01:20:18.151Z,6.47
2019-03-09T01:22:46.314Z,6.13
2019-03-09T01:25:14.383Z,6.23
2019-03-09T01:27:42.450Z,6.70
2019-03-09T01:30:12.423Z,6.80
2019-03-09T01:32:40.462Z,6.73
2019-03-09T01:35:08.491Z,6.20
2019-03-09T01:37:36.549Z,6.33
2019-03-09T01:40:05.019Z,6.80
2019-03-09T01:42:33.029Z,6.40
2019-03-09T01:45:02.187Z,6.03
2019-03-09T01:47:30.202Z,6.57
2019-03-09T01:49:58.184Z,7.00
2019-03-09T01:52:26.269Z,6.83
2019-03-09T01:54:54.477Z,6.13
2019-03-09T01:57:22.535Z,6.63
2019-03-09T01:59:50.563Z,5.97
2019-03-09T02:02:18.677Z,6.43
2019-03-09T02:04:46.712Z,6.20
2019-03-09T02:07:14.808Z,6.30
2019-03-09T02:09:42.857Z,5.47
2019-03-09T02:12:10.949Z,6.10
2019-03-09T02:14:38.944Z,6.73
2019-03-09T02:17:06.990Z,6.03
2019-03-09T02:19:35.217Z,6.03
2019-03-09T02:22:03.265Z,6.37
2019-03-09T02:24:31.335Z,5.43
2019-03-09T02:26:59.722Z,5.90
2019-03-09T02:29:27.782Z,6.50
2019-03-09T02:31:55.805Z,6.20
2019-03-09T02:34:24.142Z,6.03
2019-03-09T02:36:52.419Z,5.63
2019-03-09T02:39:39.445Z,6.30
2019-03-09T02:42:07.519Z,6.13
2019-03-09T02:44:36.391Z,5.97
2019-03-09T02:47:04.408Z,6.17
2019-03-09T02:49:32.470Z,6.37
2019-03-09T02:52:00.506Z,6.63
2019-03-09T02:54:28.524Z,5.73
2019-03-09T02:56:56.542Z,5.57
2019-03-09T02:59:24.638Z,5.80
2019-03-09T03:02:11.664Z,6.20
2019-03-09T03:04:39.700Z,5.30
2019-03-09T03:07:07.729Z,5.73
2019-03-09T03:09:36.007Z,5.30
2019-03-09T03:12:04.120Z,5.53
2019-03-09T03:14:32.728Z,6.33
2019-03-09T03:17:00.750Z,5.77
2019-03-09T03:19:29.607Z,5.37
2019-03-09T03:21:58.137Z,6.40
2019-03-09T03:24:26.162Z,5.40
2019-03-09T03:26:54.253Z,5.90
2019-03-09T03:29:22.280Z,6.70
2019-03-09T03:31:50.386Z,5.43
2019-03-09T03:34:18.441Z,5.10
2019-03-09T03:36:46.548Z,5.00
2019-03-09T03:39:14.940Z,5.57
2019-03-09T03:41:43.158Z,5.87
2019-03-09T03:44:11.143Z,5.70
2019-03-09T03:46:39.199Z,4.83
2019-03-09T03:49:07.235Z,5.43
2019-03-09T03:51:35.233Z,5.30
2019-03-09T03:54:03.307Z,4.87
2019-03-09T03:56:31.314Z,4.57
2019-03-09T03:58:59.343Z,5.33
2019-03-09T04:01:27.317Z,5.73
2019-03-09T04:03:55.362Z,5.73
2019-03-09T04:06:23.375Z,5.80
2019-03-09T04:08:51.469Z,6.20
2019-03-09T04:11:19.490Z,5.58
2019-03-09T04:13:47.524Z,5.33
2019-03-09T04:16:15.574Z,5.63
2019-03-09T04:18:43.579Z,5.27
2019-03-09T04:21:11.569Z,4.80
2019-03-09T04:23:39.641Z,5.07
2019-03-09T04:26:07.645Z,5.13
2019-03-09T04:28:35.736Z,4.70
2019-03-09T04:31:03.788Z,5.07
2019-03-09T04:33:31.789Z,4.93
2019-03-09T04:35:59.819Z,4.70
2019-03-09T04:38:27.902Z,5.17
2019-03-09T04:40:55.944Z,5.20
2019-03-09T04:43:24.011Z,4.97
2019-03-09T04:45:52.091Z,4.93
2019-03-09T04:48:20.159Z,4.90
2019-03-09T04:50:48.194Z,5.10
2019-03-09T04:53:16.217Z,5.27
2019-03-09T04:55:44.295Z,5.00
2019-03-09T04:58:12.275Z,5.37
2019-03-09T05:00:41.576Z,5.67
2019-03-09T05:03:09.637Z,5.80
2019-03-09T05:05:38.630Z,6.37
2019-03-09T05:08:08.599Z,5.60
2019-03-09T05:10:41.743Z,5.13
2019-03-09T05:13:11.436Z,6.03
2019-03-09T05:15:39.706Z,6.53
2019-03-09T05:18:07.760Z,5.97
2019-03-09T05:20:35.761Z,6.97
2019-03-09T05:23:06.645Z,5.20
2019-03-09T05:25:34.694Z,6.63
2019-03-09T05:28:02.736Z,5.77
2019-03-09T05:30:37.337Z,5.40
2019-03-09T05:33:05.426Z,5.10
2019-03-09T05:35:33.578Z,5.27
2019-03-09T05:38:01.645Z,6.27
2019-03-09T05:40:29.640Z,5.60
2019-03-09T05:42:57.699Z,5.30
2019-03-09T05:45:25.762Z,5.53
2019-03-09T05:47:53.829Z,6.27
2019-03-09T05:50:22.144Z,6.63
2019-03-09T05:52:52.918Z,6.97
2019-03-09T05:55:21.601Z,6.53
2019-03-09T05:57:49.613Z,6.37
2019-03-09T06:00:17.839Z,6.97
2019-03-09T06:02:47.457Z,7.27
2019-03-09T06:05:50.429Z,7.00
2019-03-09T06:08:18.404Z,7.43
2019-03-09T06:10:46.428Z,7.13
2019-03-09T06:13:14.469Z,7.37
2019-03-09T06:15:42.556Z,6.30
2019-03-09T06:18:10.589Z,7.70
2019-03-09T06:20:38.655Z,7.50
2019-03-09T06:23:06.683Z,6.77
2019-03-09T06:25:34.761Z,6.83
2019-03-09T06:28:02.817Z,6.13
2019-03-09T06:30:30.830Z,6.37
2019-03-09T06:33:16.409Z,6.87
2019-03-09T06:35:45.194Z,6.80
2019-03-09T06:38:30.838Z,6.10
2019-03-09T06:41:02.847Z,6.70
2019-03-09T06:43:28.465Z,6.23
2019-03-09T06:45:56.510Z,8.50
2019-03-09T06:48:24.583Z,5.77
2019-03-09T06:50:52.577Z,6.53
2019-03-09T06:53:20.649Z,6.40
2019-03-09T06:55:48.606Z,6.67
2019-03-09T06:58:16.648Z,5.67
2019-03-09T07:00:44.693Z,5.63
2019-03-09T07:03:13.548Z,4.70
2019-03-09T07:05:41.627Z,5.53
2019-03-09T07:08:09.790Z,5.77
2019-03-09T07:10:37.900Z,5.10
2019-03-09T07:13:06.210Z,5.10
2019-03-09T07:15:39.572Z,4.53
2019-03-09T07:18:11.501Z,4.47
2019-03-09T07:20:39.587Z,3.47
2019-03-09T07:23:07.740Z,3.70
2019-03-09T07:25:35.757Z,3.70
2019-03-09T07:28:06.551Z,3.73
2019-03-09T07:30:35.240Z,4.10
2019-03-09T07:33:03.642Z,3.23
2019-03-09T07:35:32.874Z,3.53
2019-03-09T07:38:01.050Z,3.43
2019-03-09T07:40:29.226Z,3.90
2019-03-09T07:42:59.279Z,3.47
2019-03-09T07:45:27.383Z,3.20
2019-03-09T07:47:55.452Z,3.20
2019-03-09T07:50:24.231Z,2.67
2019-03-09T07:52:52.283Z,2.20
2019-03-09T07:55:20.640Z,2.73
2019-03-09T07:57:49.069Z,3.17
2019-03-09T08:00:17.747Z,2.10
2019-03-09T08:02:45.793Z,2.00
2019-03-09T08:05:14.080Z,2.40
2019-03-09T08:07:43.604Z,2.43
2019-03-09T08:10:12.928Z,2.03
2019-03-09T08:12:41.068Z,2.00
2019-03-09T08:15:09.444Z,2.67
2019-03-09T08:17:40.696Z,2.27
2019-03-09T08:20:10.446Z,1.83
2019-03-09T08:22:38.395Z,1.53
2019-03-09T08:25:06.790Z,1.73
2019-03-09T08:27:34.803Z,1.60
2019-03-09T08:30:02.889Z,1.50
2019-03-09T08:32:33.468Z,1.60
2019-03-09T08:35:01.833Z,1.40
2019-03-09T08:37:30.343Z,1.43
2019-03-09T08:39:59.098Z,1.87
2019-03-09T08:42:27.589Z,1.33
2019-03-09T08:44:55.679Z,1.70
2019-03-09T08:47:27.061Z,1.57
2019-03-09T08:49:56.706Z,1.60
2019-03-09T08:52:25.424Z,1.90
2019-03-09T08:54:53.981Z,2.10
2019-03-09T08:57:22.438Z,2.10
2019-03-09T08:59:50.814Z,1.90
2019-03-09T09:02:19.408Z,2.20
2019-03-09T09:04:47.914Z,1.80
2019-03-09T09:07:16.854Z,2.70
2019-03-09T09:09:45.843Z,1.37
2019-03-09T09:12:14.175Z,1.92
2019-03-09T09:14:42.704Z,1.80
2019-03-09T09:17:11.076Z,1.47
2019-03-09T09:19:39.482Z,1.67
2019-03-09T09:22:07.508Z,1.80
2019-03-09T09:24:35.889Z,4.00
2019-03-09T09:27:05.596Z,1.90
2019-03-09T09:29:34.115Z,1.67
2019-03-09T09:32:02.836Z,2.23
2019-03-09T09:34:30.948Z,1.67
2019-03-09T09:36:59.025Z,1.60
2019-03-09T09:39:27.605Z,2.17
2019-03-09T09:41:56.093Z,2.63
2019-03-09T09:44:24.522Z,2.40
2019-03-09T09:46:54.049Z,2.10
2019-03-09T09:49:22.416Z,2.20
2019-03-09T09:51:51.453Z,2.57
2019-03-09T09:54:19.809Z,2.58
2019-03-09T09:56:48.404Z,2.15
2019-03-09T09:59:17.898Z,2.15
2019-03-09T10:01:46.658Z,1.62
2019-03-09T10:04:18.217Z,2.20
2019-03-09T10:06:46.669Z,2.95
2019-03-09T10:09:14.917Z,3.40
2019-03-09T10:11:43.084Z,2.77
2019-03-09T10:14:12.296Z,2.53
2019-03-09T10:16:40.346Z,1.90
2019-03-09T10:19:14.561Z,2.55
2019-03-09T10:21:42.615Z,2.10
2019-03-09T10:24:10.672Z,2.85
2019-03-09T10:26:38.760Z,3.50
2019-03-09T10:29:06.928Z,1.98
2019-03-09T10:31:34.957Z,2.25
2019-03-09T10:34:02.970Z,3.17
2019-03-09T10:36:31.979Z,2.60
2019-03-09T10:39:00.375Z,2.30
2019-03-09T10:41:28.370Z,2.63
2019-03-09T10:43:56.366Z,3.97
2019-03-09T10:46:24.348Z,2.40
2019-03-09T10:48:52.392Z,2.92
2019-03-09T10:51:20.535Z,3.30
2019-03-09T10:53:50.048Z,3.43
2019-03-09T10:56:18.120Z,2.67
2019-03-09T10:58:46.330Z,2.47
2019-03-09T11:01:15.965Z,2.13
2019-03-09T11:03:43.939Z,2.33
2019-03-09T11:06:12.793Z,2.60
2019-03-09T11:08:41.258Z,2.90
2019-03-09T11:11:09.804Z,2.50
2019-03-09T11:13:38.210Z,3.10
2019-03-09T11:16:08.088Z,2.40
2019-03-09T11:18:36.601Z,2.53
2019-03-09T11:21:04.661Z,2.20
2019-03-09T11:23:34.512Z,1.90
2019-03-09T11:26:02.364Z,3.33
2019-03-09T11:28:35.510Z,2.17
2019-03-09T11:31:03.546Z,1.70
2019-03-09T11:33:31.550Z,2.90
2019-03-09T11:35:59.620Z,3.77
2019-03-09T11:38:27.649Z,2.25
2019-03-09T11:40:58.648Z,3.05
2019-03-09T11:43:25.556Z,2.80
2019-03-09T11:45:53.646Z,2.75
2019-03-09T11:48:21.916Z,2.20
2019-03-09T11:50:51.033Z,2.35
2019-03-09T11:53:20.763Z,2.30
2019-03-09T11:55:48.795Z,2.80
2019-03-09T11:58:16.846Z,2.52
2019-03-09T12:00:45.324Z,2.40
2019-03-09T12:03:13.794Z,2.57
2019-03-09T12:05:41.737Z,2.37
2019-03-09T12:08:10.399Z,2.90
2019-03-09T12:10:39.180Z,2.35
2019-03-09T12:13:07.695Z,3.25
2019-03-09T12:15:36.522Z,2.83
2019-03-09T12:18:05.748Z,2.27
2019-03-09T12:20:33.968Z,3.10
2019-03-09T12:23:11.720Z,3.08
2019-03-09T12:25:39.766Z,2.50
2019-03-09T12:28:07.884Z,2.72
2019-03-09T12:30:35.943Z,2.95
2019-03-09T12:33:03.950Z,2.40
2019-03-09T12:35:32.136Z,2.52
2019-03-09T12:38:00.152Z,2.65
2019-03-09T12:40:28.263Z,2.85
2019-03-09T12:42:56.424Z,2.70
2019-03-09T12:45:24.457Z,2.90
2019-03-09T12:47:52.581Z,3.27
2019-03-09T12:50:20.968Z,1.80
2019-03-09T12:52:49.085Z,3.12
2019-03-09T12:55:18.330Z,2.73
2019-03-09T12:57:46.399Z,2.50
2019-03-09T13:00:15.409Z,3.08
2019-03-09T13:02:43.558Z,3.03
2019-03-09T13:05:11.574Z,4.10
2019-03-09T13:07:39.619Z,4.72
2019-03-09T13:10:07.578Z,4.17
2019-03-09T13:12:35.651Z,2.77
2019-03-09T13:15:04.795Z,4.87
2019-03-09T13:17:33.035Z,2.57
2019-03-09T13:20:01.064Z,2.80
2019-03-09T13:22:29.567Z,3.10
2019-03-09T13:24:57.543Z,2.90
2019-03-09T13:27:25.617Z,3.63
2019-03-09T13:29:53.645Z,3.17
2019-03-09T13:35:31.245Z,3.90
2019-03-09T13:37:59.244Z,3.20
2019-03-09T13:40:27.340Z,4.03
2019-03-09T13:42:55.358Z,3.83
2019-03-09T13:45:24.537Z,3.73
2019-03-09T13:47:53.687Z,3.80
2019-03-09T13:50:21.702Z,3.93
2019-03-09T13:52:49.692Z,3.40
2019-03-09T13:55:17.888Z,4.60
2019-03-09T13:57:45.877Z,4.50
2019-03-09T14:00:15.622Z,5.17
2019-03-09T14:02:43.693Z,4.30
2019-03-09T14:05:11.693Z,4.53
2019-03-09T14:07:39.771Z,4.07
2019-03-09T14:10:08.503Z,13.33
2019-03-09T14:12:36.650Z,4.53
2019-03-09T14:15:05.010Z,4.30
2019-03-09T14:17:33.680Z,4.17
2019-03-09T14:20:01.737Z,4.37
2019-03-09T14:22:29.792Z,4.03
2019-03-09T14:24:58.931Z,3.90
2019-03-09T14:27:28.104Z,4.17
2019-03-09T14:29:56.179Z,4.47
2019-03-09T14:32:24.268Z,3.80
2019-03-09T14:34:52.865Z,3.70
2019-03-09T14:37:21.099Z,4.07
2019-03-09T14:39:49.205Z,3.42
2019-03-09T14:42:19.926Z,3.52
2019-03-09T14:44:48.072Z,3.80
2019-03-09T14:47:16.149Z,3.73
2019-03-09T14:49:46.158Z,3.40
2019-03-09T14:52:15.292Z,4.22
2019-03-09T14:54:45.595Z,4.10
2019-03-09T14:57:13.666Z,3.80
2019-03-09T14:59:41.703Z,3.93
2019-03-09T15:02:09.787Z,3.60
2019-03-09T15:04:37.806Z,3.80
2019-03-09T15:07:19.328Z,4.00
2019-03-09T15:09:47.318Z,4.17
2019-03-09T15:12:15.535Z,4.47
2019-03-09T15:14:47.964Z,4.17
2019-03-09T15:17:16.648Z,3.77
2019-03-09T15:19:44.944Z,4.40
2019-03-09T15:22:13.982Z,5.67
2019-03-09T15:24:49.816Z,3.90
2019-03-09T15:27:18.199Z,4.10
2019-03-09T15:29:46.869Z,4.40
2019-03-09T15:32:15.529Z,4.10
2019-03-09T15:34:48.766Z,4.50
2019-03-09T15:37:17.906Z,4.50
2019-03-09T15:39:47.464Z,4.77
2019-03-09T15:42:15.863Z,3.50
2019-03-09T15:44:44.782Z,3.03
2019-03-09T15:47:13.434Z,3.07
2019-03-09T15:49:43.142Z,3.30
2019-03-09T15:52:11.215Z,2.60
2019-03-09T15:54:39.671Z,2.20
2019-03-09T15:57:08.286Z,2.22
2019-03-09T15:59:36.713Z,2.27
2019-03-09T16:02:10.198Z,2.10
2019-03-09T16:04:38.696Z,2.77
2019-03-09T16:07:07.422Z,3.10
2019-03-09T16:09:36.152Z,2.65
2019-03-09T16:12:05.281Z,3.02
2019-03-09T16:14:33.315Z,2.90
2019-03-09T16:17:03.961Z,2.17
2019-03-09T16:19:31.985Z,2.20
2019-03-09T16:22:03.162Z,2.20
2019-03-09T16:24:31.242Z,2.02
2019-03-09T16:26:59.271Z,2.75
2019-03-09T16:29:27.306Z,2.10
2019-03-09T16:31:55.956Z,2.17
2019-03-09T16:34:25.086Z,2.00
2019-03-09T16:36:53.308Z,2.53
2019-03-09T16:39:21.363Z,2.70
2019-03-09T16:41:49.436Z,2.60
2019-03-09T16:44:17.709Z,2.63
2019-03-09T16:46:48.061Z,2.17
2019-03-09T16:49:15.554Z,2.30
2019-03-09T16:51:44.039Z,3.17
2019-03-09T16:54:12.736Z,3.03
2019-03-09T16:56:40.691Z,3.20
2019-03-09T16:59:08.728Z,3.23
2019-03-09T17:01:36.765Z,3.27
2019-03-09T17:04:05.115Z,3.53
2019-03-09T17:06:33.837Z,2.70
2019-03-09T17:09:03.421Z,2.70
2019-03-09T17:11:31.967Z,3.30
2019-03-09T17:14:00.483Z,3.13
2019-03-09T17:16:28.921Z,2.77
2019-03-09T17:18:57.281Z,3.23
2019-03-09T17:21:25.425Z,4.20
2019-03-09T17:23:53.773Z,3.40
2019-03-09T17:26:22.056Z,2.70
2019-03-09T17:28:50.174Z,2.67
2019-03-09T17:31:18.952Z,3.40
2019-03-09T17:33:47.766Z,3.60
2019-03-09T17:36:19.179Z,3.97
2019-03-09T17:38:49.217Z,4.50
2019-03-09T17:41:17.872Z,4.07
2019-03-09T17:43:49.949Z,4.80
2019-03-09T17:46:18.105Z,4.63
2019-03-09T17:48:46.529Z,5.90
2019-03-09T17:51:14.866Z,4.50
2019-03-09T17:53:44.872Z,4.00
2019-03-09T17:56:13.377Z,4.30
2019-03-09T17:58:43.068Z,8.80
2019-03-09T18:01:15.484Z,8.03
2019-03-09T18:03:48.093Z,5.00
2019-03-09T18:06:16.195Z,6.63
2019-03-09T18:08:44.437Z,7.70
2019-03-09T18:11:13.407Z,5.70
2019-03-09T18:13:42.801Z,5.67
2019-03-09T18:16:10.940Z,6.20
2019-03-09T18:18:39.148Z,4.90
2019-03-09T18:21:12.849Z,5.20
2019-03-09T18:23:40.973Z,4.77
2019-03-09T18:26:09.270Z,6.12
2019-03-09T18:28:37.597Z,5.50
2019-03-09T18:31:10.018Z,5.20
2019-03-09T18:33:38.232Z,5.73
2019-03-09T18:36:09.282Z,5.73
2019-03-09T18:38:37.461Z,5.10
2019-03-09T18:41:05.952Z,5.83
2019-03-09T18:43:34.176Z,4.90
2019-03-09T18:46:02.719Z,5.23
2019-03-09T18:48:32.214Z,5.20
2019-03-09T18:51:00.511Z,4.83
2019-03-09T18:53:31.289Z,5.27
2019-03-09T18:56:01.145Z,5.23
2019-03-09T18:58:49.423Z,5.43
2019-03-09T19:01:20.567Z,4.80
2019-03-09T19:03:49.311Z,5.27
2019-03-09T19:06:17.793Z,6.15
2019-03-09T19:08:46.305Z,6.30
2019-03-09T19:11:15.201Z,5.17
2019-03-09T19:13:44.108Z,5.87
2019-03-09T19:16:12.935Z,6.70
2019-03-09T19:18:43.775Z,5.97
2019-03-09T19:21:13.626Z,5.53
2019-03-09T19:26:56.870Z,6.47
2019-03-09T19:29:26.483Z,7.00
2019-03-09T19:31:54.975Z,5.50
2019-03-09T19:34:25.847Z,5.77
2019-03-09T19:36:55.308Z,6.97
2019-03-09T19:39:55.498Z,7.03
2019-03-09T19:42:21.772Z,5.83
2019-03-09T19:44:58.391Z,4.77
2019-03-09T19:47:26.348Z,5.27
2019-03-09T19:49:54.275Z,4.87
2019-03-09T19:52:22.194Z,3.90
2019-03-09T19:54:50.251Z,4.77
2019-03-09T19:57:19.052Z,3.57
2019-03-09T19:59:47.005Z,3.67
2019-03-09T20:02:14.987Z,2.90
2019-03-09T20:04:43.028Z,2.73
2019-03-09T20:07:10.990Z,3.43
2019-03-09T20:09:39.014Z,3.50
2019-03-09T20:12:07.031Z,2.23
2019-03-09T20:14:35.128Z,2.00
2019-03-09T20:17:03.055Z,1.60
2019-03-09T20:19:31.502Z,2.47
2019-03-09T20:21:59.665Z,2.40
2019-03-09T20:24:27.692Z,2.40
2019-03-09T20:26:55.679Z,1.90
2019-03-09T20:29:23.676Z,2.10
2019-03-09T20:31:51.576Z,2.00
2019-03-09T20:34:19.535Z,1.83
2019-03-09T20:36:47.491Z,1.93
2019-03-09T20:39:15.525Z,1.80
2019-03-09T20:41:44.035Z,2.17
2019-03-09T20:44:11.980Z,1.80
2019-03-09T20:46:42.193Z,1.93
2019-03-09T20:49:09.483Z,1.53
2019-03-09T20:51:37.558Z,1.93
2019-03-09T20:54:06.235Z,1.10
2019-03-09T20:56:34.714Z,1.50
2019-03-09T20:59:02.974Z,1.70
2019-03-09T21:01:31.310Z,1.63
2019-03-09T21:04:01.078Z,1.30
2019-03-09T21:06:29.175Z,1.87
2019-03-09T21:08:57.125Z,2.03
2019-03-09T21:11:25.143Z,2.10
2019-03-09T21:13:53.174Z,3.00
2019-03-09T21:16:21.187Z,2.60
2019-03-09T21:18:49.211Z,3.60
2019-03-09T21:21:17.168Z,2.77
2019-03-09T21:23:45.095Z,2.70
2019-03-09T21:26:13.341Z,2.67
2019-03-09T21:28:41.352Z,2.52
2019-03-09T21:31:09.349Z,2.47
2019-03-09T21:33:40.141Z,2.40
2019-03-09T21:36:08.096Z,2.43
2019-03-09T21:38:36.051Z,1.85
2019-03-09T21:41:04.011Z,1.97
2019-03-09T21:43:32.113Z,2.58
2019-03-09T21:46:00.052Z,5.15
2019-03-09T21:48:28.036Z,5.03
2019-03-09T21:50:55.981Z,2.90
2019-03-09T21:53:23.952Z,2.25
2019-03-09T21:55:51.922Z,1.62
2019-03-09T21:58:19.834Z,1.93
2019-03-09T22:00:49.441Z,2.67
2019-03-09T22:03:19.763Z,1.97
2019-03-09T22:05:48.142Z,1.83
2019-03-09T22:08:16.607Z,1.93
2019-03-09T22:10:45.493Z,1.90
2019-03-09T22:13:13.905Z,2.50
2019-03-09T22:15:42.258Z,2.17
2019-03-09T22:18:11.123Z,1.67
2019-03-09T22:20:39.591Z,2.43
2019-03-09T22:23:07.948Z,2.27
2019-03-09T22:25:36.522Z,2.23
2019-03-09T22:28:04.886Z,2.17
2019-03-09T22:30:33.447Z,2.30
2019-03-09T22:33:01.778Z,2.67
2019-03-09T22:35:30.161Z,2.00
2019-03-09T22:37:58.192Z,3.23
2019-03-09T22:40:26.785Z,2.77
2019-03-09T22:42:54.754Z,2.67
2019-03-09T22:45:22.909Z,1.83
2019-03-09T22:47:51.733Z,3.07
2019-03-09T22:50:20.795Z,2.60
2019-03-09T22:52:50.028Z,3.23
2019-03-09T22:55:19.018Z,3.40
2019-03-09T22:57:48.103Z,2.03
2019-03-09T23:00:18.319Z,2.33
2019-03-09T23:02:47.592Z,1.93
2019-03-09T23:05:15.596Z,2.53
2019-03-09T23:07:47.582Z,2.43
2019-03-09T23:10:16.405Z,2.37
2019-03-09T23:12:44.745Z,2.37
2019-03-09T23:15:17.235Z,2.40
2019-03-09T23:17:46.193Z,2.33
2019-03-09T23:20:14.512Z,1.97
2019-03-09T23:22:42.742Z,2.03
2019-03-09T23:25:11.059Z,2.10
2019-03-09T23:27:39.898Z,3.33
2019-03-09T23:30:09.856Z,3.37
2019-03-09T23:32:38.159Z,2.87
2019-03-09T23:35:06.140Z,2.40
2019-03-09T23:37:34.425Z,2.77
2019-03-09T23:40:02.656Z,2.43
2019-03-09T23:42:30.944Z,2.30
2019-03-09T23:44:59.225Z,2.90
2019-03-09T23:47:27.555Z,2.40
2019-03-09T23:49:55.476Z,3.50
2019-03-09T23:52:23.676Z,3.03
2019-03-09T23:54:51.570Z,2.23
2019-03-09T23:57:19.553Z,18.43
2019-03-09T23:59:47.649Z,2.27
